sensor_id;sensor_type;location;lat;lon;timestamp;P1;durP1;ratioP1;P2;durP2;ratioP2
10571;SDS011;5334;48.928;12.704;2022-10-04T00:00:58;1999.90;;;999.90;;
10571;SDS011;5334;48.928;12.704;2022-10-04T00:03:35;1999.90;;;999.90;;
10571;SDS011;5334;48.928;12.704;2022-10-04T00:06:11;1999.90;;;999.90;;
10571;SDS011;5334;48.928;12.704;2022-10-04T00:11:31;1999.90;;;999.90;;
10571;SDS011;5334;48.928;12.704;2022-10-04T00:14:08;1999.90;;;999.90;;
10571;SDS011;5334;48.928;12.704;2022-10-04T00:16:38;1999.90;;;999.90;;
10571;SDS011;5334;48.928;12.704;2022-10-04T00:24:25;1999.90;;;999.90;;
10571;SDS011;5334;48.928;12.704;2022-10-04T00:27:11;1999.90;;;999.90;;
10571;SDS011;5334;48.928;12.704;2022-10-04T00:38:00;1999.90;;;999.90;;
10571;SDS011;5334;48.928;12.704;2022-10-04T00:43:32;1999.90;;;999.90;;
10571;SDS011;5334;48.928;12.704;2022-10-04T00:46:23;1999.90;;;999.90;;
10571;SDS011;5334;48.928;12.704;2022-10-04T00:48:55;1999.90;;;999.90;;
10571;SDS011;5334;48.928;12.704;2022-10-04T00:51:37;1999.90;;;999.90;;
10571;SDS011;5334;48.928;12.704;2022-10-04T00:54:11;1999.90;;;999.90;;
10571;SDS011;5334;48.928;12.704;2022-10-04T00:57:03;1999.90;;;999.90;;
10571;SDS011;5334;48.928;12.704;2022-10-04T01:07:37;1999.90;;;999.90;;
10571;SDS011;5334;48.928;12.704;2022-10-04T01:10:12;1999.90;;;999.90;;
10571;SDS011;5334;48.928;12.704;2022-10-04T01:12:55;1999.90;;;999.90;;
10571;SDS011;5334;48.928;12.704;2022-10-04T01:18:13;1999.90;;;999.90;;
10571;SDS011;5334;48.928;12.704;2022-10-04T01:21:06;1999.90;;;999.90;;
10571;SDS011;5334;48.928;12.704;2022-10-04T01:26:02;1999.90;;;999.90;;
10571;SDS011;5334;48.928;12.704;2022-10-04T01:28:48;1999.90;;;999.90;;
10571;SDS011;5334;48.928;12.704;2022-10-04T01:31:14;1999.90;;;999.90;;
10571;SDS011;5334;48.928;12.704;2022-10-04T01:33:40;1999.90;;;999.90;;
10571;SDS011;5334;48.928;12.704;2022-10-04T01:36:06;1999.90;;;999.90;;
10571;SDS011;5334;48.928;12.704;2022-10-04T01:38:32;1999.90;;;999.90;;
10571;SDS011;5334;48.928;12.704;2022-10-04T01:40:58;1999.90;;;999.90;;
10571;SDS011;5334;48.928;12.704;2022-10-04T01:43:30;1999.90;;;999.90;;
10571;SDS011;5334;48.928;12.704;2022-10-04T01:46:07;1999.90;;;999.90;;
10571;SDS011;5334;48.928;12.704;2022-10-04T01:48:35;1999.90;;;999.90;;
10571;SDS011;5334;48.928;12.704;2022-10-04T01:51:07;1999.90;;;999.90;;
10571;SDS011;5334;48.928;12.704;2022-10-04T01:54:09;1999.90;;;999.90;;
10571;SDS011;5334;48.928;12.704;2022-10-04T01:56:41;1999.90;;;999.90;;
10571;SDS011;5334;48.928;12.704;2022-10-04T01:59:19;1999.90;;;999.90;;
10571;SDS011;5334;48.928;12.704;2022-10-04T02:01:51;1999.90;;;999.90;;
10571;SDS011;5334;48.928;12.704;2022-10-04T02:04:29;1999.90;;;999.90;;
10571;SDS011;5334;48.928;12.704;2022-10-04T02:07:00;1999.90;;;999.90;;
10571;SDS011;5334;48.928;12.704;2022-10-04T02:09:28;1999.90;;;999.90;;
10571;SDS011;5334;48.928;12.704;2022-10-04T02:11:58;1999.90;;;999.90;;
10571;SDS011;5334;48.928;12.704;2022-10-04T02:14:25;1999.90;;;999.90;;
10571;SDS011;5334;48.928;12.704;2022-10-04T02:16:53;1999.90;;;999.90;;
10571;SDS011;5334;48.928;12.704;2022-10-04T02:19:24;1999.90;;;999.90;;
10571;SDS011;5334;48.928;12.704;2022-10-04T02:21:56;1999.90;;;999.90;;
10571;SDS011;5334;48.928;12.704;2022-10-04T02:24:23;1999.90;;;999.90;;
10571;SDS011;5334;48.928;12.704;2022-10-04T02:26:49;1999.90;;;999.90;;
10571;SDS011;5334;48.928;12.704;2022-10-04T02:29:16;1999.90;;;999.90;;
10571;SDS011;5334;48.928;12.704;2022-10-04T02:31:43;1999.90;;;999.90;;
10571;SDS011;5334;48.928;12.704;2022-10-04T02:34:29;1999.90;;;999.90;;
10571;SDS011;5334;48.928;12.704;2022-10-04T02:36:55;1999.90;;;999.90;;
10571;SDS011;5334;48.928;12.704;2022-10-04T02:39:22;1999.90;;;999.90;;
10571;SDS011;5334;48.928;12.704;2022-10-04T02:41:50;1999.90;;;999.90;;
10571;SDS011;5334;48.928;12.704;2022-10-04T02:47:23;1999.90;;;999.90;;
10571;SDS011;5334;48.928;12.704;2022-10-04T02:49:53;1999.90;;;999.90;;
10571;SDS011;5334;48.928;12.704;2022-10-04T02:52:34;1999.90;;;999.90;;
10571;SDS011;5334;48.928;12.704;2022-10-04T02:57:39;1999.90;;;999.90;;
10571;SDS011;5334;48.928;12.704;2022-10-04T03:05:29;1999.90;;;999.90;;
10571;SDS011;5334;48.928;12.704;2022-10-04T03:07:54;1999.90;;;999.90;;
10571;SDS011;5334;48.928;12.704;2022-10-04T03:10:20;1999.90;;;999.90;;
10571;SDS011;5334;48.928;12.704;2022-10-04T03:12:48;1999.90;;;999.90;;
10571;SDS011;5334;48.928;12.704;2022-10-04T03:15:15;1999.90;;;999.90;;
10571;SDS011;5334;48.928;12.704;2022-10-04T03:17:42;1999.90;;;999.90;;
10571;SDS011;5334;48.928;12.704;2022-10-04T03:20:09;1999.90;;;999.90;;
10571;SDS011;5334;48.928;12.704;2022-10-04T03:22:39;1999.90;;;999.90;;
10571;SDS011;5334;48.928;12.704;2022-10-04T03:25:09;1999.90;;;999.90;;
10571;SDS011;5334;48.928;12.704;2022-10-04T03:27:41;1999.90;;;999.90;;
10571;SDS011;5334;48.928;12.704;2022-10-04T03:30:11;1999.90;;;999.90;;
10571;SDS011;5334;48.928;12.704;2022-10-04T03:32:38;1999.90;;;999.90;;
10571;SDS011;5334;48.928;12.704;2022-10-04T03:35:06;1999.90;;;999.90;;
10571;SDS011;5334;48.928;12.704;2022-10-04T03:37:46;1999.90;;;999.90;;
10571;SDS011;5334;48.928;12.704;2022-10-04T03:40:15;1999.90;;;999.90;;
10571;SDS011;5334;48.928;12.704;2022-10-04T03:42:53;1999.90;;;999.90;;
10571;SDS011;5334;48.928;12.704;2022-10-04T03:45:19;1999.90;;;999.90;;
10571;SDS011;5334;48.928;12.704;2022-10-04T03:47:48;1999.90;;;999.90;;
10571;SDS011;5334;48.928;12.704;2022-10-04T03:50:23;1999.90;;;999.90;;
10571;SDS011;5334;48.928;12.704;2022-10-04T03:52:55;1999.90;;;999.90;;
10571;SDS011;5334;48.928;12.704;2022-10-04T03:55:25;1999.90;;;999.90;;
10571;SDS011;5334;48.928;12.704;2022-10-04T03:57:57;1999.90;;;999.90;;
10571;SDS011;5334;48.928;12.704;2022-10-04T04:00:24;1999.90;;;999.90;;
10571;SDS011;5334;48.928;12.704;2022-10-04T04:05:36;1999.90;;;999.90;;
10571;SDS011;5334;48.928;12.704;2022-10-04T04:10:57;1999.90;;;999.90;;
10571;SDS011;5334;48.928;12.704;2022-10-04T04:15:53;1999.90;;;999.90;;
10571;SDS011;5334;48.928;12.704;2022-10-04T04:18:23;1999.90;;;999.90;;
10571;SDS011;5334;48.928;12.704;2022-10-04T04:20:52;1999.90;;;999.90;;
10571;SDS011;5334;48.928;12.704;2022-10-04T04:25:56;1999.90;;;999.90;;
10571;SDS011;5334;48.928;12.704;2022-10-04T04:28:26;1999.90;;;999.90;;
10571;SDS011;5334;48.928;12.704;2022-10-04T04:31:12;1999.90;;;999.90;;
10571;SDS011;5334;48.928;12.704;2022-10-04T04:33:50;1999.90;;;999.90;;
10571;SDS011;5334;48.928;12.704;2022-10-04T04:36:27;1999.90;;;999.90;;
10571;SDS011;5334;48.928;12.704;2022-10-04T04:39:19;1999.90;;;999.90;;
10571;SDS011;5334;48.928;12.704;2022-10-04T04:42:06;1999.90;;;999.90;;
10571;SDS011;5334;48.928;12.704;2022-10-04T04:44:55;1999.90;;;999.90;;
10571;SDS011;5334;48.928;12.704;2022-10-04T04:52:39;1999.90;;;999.90;;
10571;SDS011;5334;48.928;12.704;2022-10-04T04:55:15;1999.90;;;999.90;;
10571;SDS011;5334;48.928;12.704;2022-10-04T04:57:42;1999.90;;;999.90;;
10571;SDS011;5334;48.928;12.704;2022-10-04T05:00:13;1999.90;;;999.90;;
10571;SDS011;5334;48.928;12.704;2022-10-04T05:02:56;1999.90;;;999.90;;
10571;SDS011;5334;48.928;12.704;2022-10-04T05:08:14;1999.90;;;999.90;;
10571;SDS011;5334;48.928;12.704;2022-10-04T05:10:50;1999.90;;;999.90;;
10571;SDS011;5334;48.928;12.704;2022-10-04T05:14:09;1999.90;;;999.90;;
10571;SDS011;5334;48.928;12.704;2022-10-04T05:16:25;1999.90;;;999.90;;
10571;SDS011;5334;48.928;12.704;2022-10-04T05:19:14;1999.90;;;999.90;;
10571;SDS011;5334;48.928;12.704;2022-10-04T05:21:46;1999.90;;;999.90;;
10571;SDS011;5334;48.928;12.704;2022-10-04T05:24:20;1999.90;;;999.90;;
10571;SDS011;5334;48.928;12.704;2022-10-04T05:26:51;1999.90;;;999.90;;
10571;SDS011;5334;48.928;12.704;2022-10-04T05:29:26;1999.90;;;999.90;;
10571;SDS011;5334;48.928;12.704;2022-10-04T05:31:59;1999.90;;;999.90;;
10571;SDS011;5334;48.928;12.704;2022-10-04T05:34:47;1999.90;;;999.90;;
10571;SDS011;5334;48.928;12.704;2022-10-04T05:43:20;1999.90;;;999.90;;
10571;SDS011;5334;48.928;12.704;2022-10-04T05:48:48;1999.90;;;999.90;;
10571;SDS011;5334;48.928;12.704;2022-10-04T05:51:21;1999.90;;;999.90;;
10571;SDS011;5334;48.928;12.704;2022-10-04T05:54:02;1999.90;;;999.90;;
10571;SDS011;5334;48.928;12.704;2022-10-04T06:02:02;1999.90;;;999.90;;
10571;SDS011;5334;48.928;12.704;2022-10-04T06:04:46;1999.90;;;999.90;;
10571;SDS011;5334;48.928;12.704;2022-10-04T06:23:43;1999.90;;;999.90;;
10571;SDS011;5334;48.928;12.704;2022-10-04T06:26:20;1999.90;;;999.90;;
10571;SDS011;5334;48.928;12.704;2022-10-04T06:28:59;1999.90;;;999.90;;
10571;SDS011;5334;48.928;12.704;2022-10-04T06:31:41;1999.90;;;999.90;;
10571;SDS011;5334;48.928;12.704;2022-10-04T06:46:13;1999.90;;;999.90;;
10571;SDS011;5334;48.928;12.704;2022-10-04T07:00:23;1999.90;;;999.90;;
10571;SDS011;5334;48.928;12.704;2022-10-04T07:05:38;1999.90;;;999.90;;
10571;SDS011;5334;48.928;12.704;2022-10-04T07:08:20;1999.90;;;999.90;;
10571;SDS011;5334;48.928;12.704;2022-10-04T07:11:40;1999.90;;;999.90;;
10571;SDS011;5334;48.928;12.704;2022-10-04T07:13:50;1999.90;;;999.90;;
10571;SDS011;5334;48.928;12.704;2022-10-04T07:19:13;1999.90;;;999.90;;
10571;SDS011;5334;48.928;12.704;2022-10-04T07:21:55;1999.90;;;999.90;;
10571;SDS011;5334;48.928;12.704;2022-10-04T07:24:25;1999.90;;;999.90;;
10571;SDS011;5334;48.928;12.704;2022-10-04T07:26:57;1999.90;;;999.90;;
10571;SDS011;5334;48.928;12.704;2022-10-04T07:29:27;1999.90;;;999.90;;
10571;SDS011;5334;48.928;12.704;2022-10-04T07:32:06;1999.90;;;999.90;;
10571;SDS011;5334;48.928;12.704;2022-10-04T07:37:35;1999.90;;;999.90;;
10571;SDS011;5334;48.928;12.704;2022-10-04T07:42:56;1999.90;;;999.90;;
10571;SDS011;5334;48.928;12.704;2022-10-04T07:45:30;1999.90;;;999.90;;
10571;SDS011;5334;48.928;12.704;2022-10-04T07:48:15;1999.90;;;999.90;;
10571;SDS011;5334;48.928;12.704;2022-10-04T07:53:36;1999.90;;;999.90;;
10571;SDS011;5334;48.928;12.704;2022-10-04T07:56:36;1999.90;;;999.90;;
10571;SDS011;5334;48.928;12.704;2022-10-04T07:59:15;1999.90;;;999.90;;
10571;SDS011;5334;48.928;12.704;2022-10-04T08:01:52;1999.90;;;999.90;;
10571;SDS011;5334;48.928;12.704;2022-10-04T08:04:35;1999.90;;;999.90;;
10571;SDS011;5334;48.928;12.704;2022-10-04T08:07:11;1999.90;;;999.90;;
10571;SDS011;5334;48.928;12.704;2022-10-04T08:10:02;1999.90;;;999.90;;
10571;SDS011;5334;48.928;12.704;2022-10-04T08:12:35;1999.90;;;999.90;;
10571;SDS011;5334;48.928;12.704;2022-10-04T08:15:34;1999.90;;;999.90;;
10571;SDS011;5334;48.928;12.704;2022-10-04T08:18:23;1999.90;;;999.90;;
10571;SDS011;5334;48.928;12.704;2022-10-04T08:21:06;1999.90;;;999.90;;
10571;SDS011;5334;48.928;12.704;2022-10-04T08:23:53;1999.90;;;999.90;;
10571;SDS011;5334;48.928;12.704;2022-10-04T08:26:52;1999.90;;;999.90;;
10571;SDS011;5334;48.928;12.704;2022-10-04T08:32:37;1999.90;;;999.90;;
10571;SDS011;5334;48.928;12.704;2022-10-04T08:43:53;1999.90;;;999.90;;
10571;SDS011;5334;48.928;12.704;2022-10-04T08:46:52;1999.90;;;999.90;;
10571;SDS011;5334;48.928;12.704;2022-10-04T09:17:41;1999.90;;;999.90;;
10571;SDS011;5334;48.928;12.704;2022-10-04T09:37:22;1999.90;;;999.90;;
10571;SDS011;5334;48.928;12.704;2022-10-04T09:59:45;1999.90;;;999.90;;
10571;SDS011;5334;48.928;12.704;2022-10-04T10:31:01;1999.90;;;999.90;;
10571;SDS011;5334;48.928;12.704;2022-10-04T10:42:10;1999.90;;;999.90;;
10571;SDS011;5334;48.928;12.704;2022-10-04T11:07:41;1999.90;;;999.90;;
10571;SDS011;5334;48.928;12.704;2022-10-04T11:13:27;1999.90;;;999.90;;
10571;SDS011;5334;48.928;12.704;2022-10-04T11:27:40;1999.90;;;999.90;;
10571;SDS011;5334;48.928;12.704;2022-10-04T11:30:19;1999.90;;;999.90;;
10571;SDS011;5334;48.928;12.704;2022-10-04T11:39:28;1999.90;;;999.90;;
10571;SDS011;5334;48.928;12.704;2022-10-04T12:01:30;1999.90;;;999.90;;
10571;SDS011;5334;48.928;12.704;2022-10-04T12:32:12;1999.90;;;999.90;;
10571;SDS011;5334;48.928;12.704;2022-10-04T12:37:35;1999.90;;;999.90;;
10571;SDS011;5334;48.928;12.704;2022-10-04T12:41:23;1999.90;;;999.90;;
10571;SDS011;5334;48.928;12.704;2022-10-04T12:43:42;1999.90;;;999.90;;
10571;SDS011;5334;48.928;12.704;2022-10-04T12:49:08;1999.90;;;999.90;;
10571;SDS011;5334;48.928;12.704;2022-10-04T12:51:48;1999.90;;;999.90;;
10571;SDS011;5334;48.928;12.704;2022-10-04T13:16:27;1999.90;;;999.90;;
10571;SDS011;5334;48.928;12.704;2022-10-04T13:24:27;1999.90;;;999.90;;
10571;SDS011;5334;48.928;12.704;2022-10-04T13:27:20;1999.90;;;999.90;;
10571;SDS011;5334;48.928;12.704;2022-10-04T13:55:42;1999.90;;;999.90;;
10571;SDS011;5334;48.928;12.704;2022-10-04T13:58:59;1999.90;;;999.90;;
10571;SDS011;5334;48.928;12.704;2022-10-04T14:10:00;1999.90;;;999.90;;
10571;SDS011;5334;48.928;12.704;2022-10-04T14:12:39;1999.90;;;999.90;;
10571;SDS011;5334;48.928;12.704;2022-10-04T14:21:22;1999.90;;;999.90;;
10571;SDS011;5334;48.928;12.704;2022-10-04T14:32:41;1999.90;;;999.90;;
10571;SDS011;5334;48.928;12.704;2022-10-04T14:35:30;1999.90;;;999.90;;
10571;SDS011;5334;48.928;12.704;2022-10-04T14:49:45;1999.90;;;999.90;;
10571;SDS011;5334;48.928;12.704;2022-10-04T14:52:12;1999.90;;;999.90;;
10571;SDS011;5334;48.928;12.704;2022-10-04T14:55:44;1999.90;;;999.90;;
10571;SDS011;5334;48.928;12.704;2022-10-04T14:58:04;1999.90;;;999.90;;
10571;SDS011;5334;48.928;12.704;2022-10-04T15:11:35;1999.90;;;999.90;;
10571;SDS011;5334;48.928;12.704;2022-10-04T15:14:03;1999.90;;;999.90;;
10571;SDS011;5334;48.928;12.704;2022-10-04T15:16:57;1999.90;;;999.90;;
10571;SDS011;5334;48.928;12.704;2022-10-04T15:19:36;1999.90;;;999.90;;
10571;SDS011;5334;48.928;12.704;2022-10-04T15:22:35;1999.90;;;999.90;;
10571;SDS011;5334;48.928;12.704;2022-10-04T15:30:45;1999.90;;;999.90;;
10571;SDS011;5334;48.928;12.704;2022-10-04T15:33:45;1999.90;;;999.90;;
10571;SDS011;5334;48.928;12.704;2022-10-04T15:37:32;1999.90;;;999.90;;
10571;SDS011;5334;48.928;12.704;2022-10-04T15:44:54;1999.90;;;999.90;;
10571;SDS011;5334;48.928;12.704;2022-10-04T15:47:27;1999.90;;;999.90;;
10571;SDS011;5334;48.928;12.704;2022-10-04T15:58:48;1999.90;;;999.90;;
10571;SDS011;5334;48.928;12.704;2022-10-04T16:04:14;1999.90;;;999.90;;
10571;SDS011;5334;48.928;12.704;2022-10-04T16:07:07;1999.90;;;999.90;;
10571;SDS011;5334;48.928;12.704;2022-10-04T16:10:05;1999.90;;;999.90;;
10571;SDS011;5334;48.928;12.704;2022-10-04T16:15:32;1999.90;;;999.90;;
10571;SDS011;5334;48.928;12.704;2022-10-04T16:21:03;1999.90;;;999.90;;
10571;SDS011;5334;48.928;12.704;2022-10-04T16:24:25;1999.90;;;999.90;;
10571;SDS011;5334;48.928;12.704;2022-10-04T16:33:08;1999.90;;;999.90;;
10571;SDS011;5334;48.928;12.704;2022-10-04T16:35:10;1999.90;;;999.90;;
10571;SDS011;5334;48.928;12.704;2022-10-04T16:56:17;1999.90;;;999.90;;
10571;SDS011;5334;48.928;12.704;2022-10-04T16:59:02;1999.90;;;999.90;;
10571;SDS011;5334;48.928;12.704;2022-10-04T17:09:52;1999.90;;;999.90;;
10571;SDS011;5334;48.928;12.704;2022-10-04T17:21:02;1999.90;;;999.90;;
10571;SDS011;5334;48.928;12.704;2022-10-04T17:28:55;1999.90;;;999.90;;
10571;SDS011;5334;48.928;12.704;2022-10-04T17:31:45;1999.90;;;999.90;;
10571;SDS011;5334;48.928;12.704;2022-10-04T17:40:30;1999.90;;;999.90;;
10571;SDS011;5334;48.928;12.704;2022-10-04T17:48:43;1999.90;;;999.90;;
10571;SDS011;5334;48.928;12.704;2022-10-04T17:51:39;1999.90;;;999.90;;
10571;SDS011;5334;48.928;12.704;2022-10-04T17:57:38;1999.90;;;999.90;;
10571;SDS011;5334;48.928;12.704;2022-10-04T18:00:25;1999.90;;;999.90;;
10571;SDS011;5334;48.928;12.704;2022-10-04T18:11:05;1999.90;;;999.90;;
10571;SDS011;5334;48.928;12.704;2022-10-04T18:13:44;1999.90;;;999.90;;
10571;SDS011;5334;48.928;12.704;2022-10-04T18:16:28;1999.90;;;999.90;;
10571;SDS011;5334;48.928;12.704;2022-10-04T18:18:55;1999.90;;;999.90;;
10571;SDS011;5334;48.928;12.704;2022-10-04T18:21:27;1999.90;;;999.90;;
10571;SDS011;5334;48.928;12.704;2022-10-04T18:26:52;1999.90;;;999.90;;
10571;SDS011;5334;48.928;12.704;2022-10-04T18:29:33;1999.90;;;999.90;;
10571;SDS011;5334;48.928;12.704;2022-10-04T18:34:54;1999.90;;;999.90;;
10571;SDS011;5334;48.928;12.704;2022-10-04T18:40:41;1999.90;;;999.90;;
10571;SDS011;5334;48.928;12.704;2022-10-04T18:47:48;1999.90;;;999.90;;
10571;SDS011;5334;48.928;12.704;2022-10-04T18:55:56;1999.90;;;999.90;;
10571;SDS011;5334;48.928;12.704;2022-10-04T19:04:36;1999.90;;;999.90;;
10571;SDS011;5334;48.928;12.704;2022-10-04T19:07:17;1999.90;;;999.90;;
10571;SDS011;5334;48.928;12.704;2022-10-04T19:13:28;1999.90;;;999.90;;
10571;SDS011;5334;48.928;12.704;2022-10-04T19:15:38;1999.90;;;999.90;;
10571;SDS011;5334;48.928;12.704;2022-10-04T19:21:13;1999.90;;;999.90;;
10571;SDS011;5334;48.928;12.704;2022-10-04T19:26:37;1999.90;;;999.90;;
10571;SDS011;5334;48.928;12.704;2022-10-04T19:32:04;1999.90;;;999.90;;
10571;SDS011;5334;48.928;12.704;2022-10-04T19:34:41;1999.90;;;999.90;;
10571;SDS011;5334;48.928;12.704;2022-10-04T19:39:51;1999.90;;;999.90;;
10571;SDS011;5334;48.928;12.704;2022-10-04T19:42:52;1999.90;;;999.90;;
10571;SDS011;5334;48.928;12.704;2022-10-04T19:47:57;1999.90;;;999.90;;
10571;SDS011;5334;48.928;12.704;2022-10-04T19:50:33;1999.90;;;999.90;;
10571;SDS011;5334;48.928;12.704;2022-10-04T19:56:28;1999.90;;;999.90;;
10571;SDS011;5334;48.928;12.704;2022-10-04T19:59:38;1999.90;;;999.90;;
10571;SDS011;5334;48.928;12.704;2022-10-04T20:01:59;1999.90;;;999.90;;
10571;SDS011;5334;48.928;12.704;2022-10-04T20:04:25;1999.90;;;999.90;;
10571;SDS011;5334;48.928;12.704;2022-10-04T20:07:20;1999.90;;;999.90;;
10571;SDS011;5334;48.928;12.704;2022-10-04T20:09:51;1999.90;;;999.90;;
10571;SDS011;5334;48.928;12.704;2022-10-04T20:17:45;1999.90;;;999.90;;
10571;SDS011;5334;48.928;12.704;2022-10-04T20:23:04;1999.90;;;999.90;;
10571;SDS011;5334;48.928;12.704;2022-10-04T20:28:08;1999.90;;;999.90;;
10571;SDS011;5334;48.928;12.704;2022-10-04T20:30:59;1999.90;;;999.90;;
10571;SDS011;5334;48.928;12.704;2022-10-04T20:36:04;510.97;;;223.00;;
10571;SDS011;5334;48.928;12.704;2022-10-04T20:42:01;90.13;;;86.23;;
10571;SDS011;5334;48.928;12.704;2022-10-04T20:44:39;86.63;;;82.83;;
10571;SDS011;5334;48.928;12.704;2022-10-04T20:47:53;77.47;;;74.07;;
10571;SDS011;5334;48.928;12.704;2022-10-04T20:50:02;82.27;;;78.67;;
10571;SDS011;5334;48.928;12.704;2022-10-04T20:52:42;79.27;;;75.83;;
10571;SDS011;5334;48.928;12.704;2022-10-04T20:55:17;94.40;;;90.30;;
10571;SDS011;5334;48.928;12.704;2022-10-04T20:57:52;86.87;;;83.13;;
10571;SDS011;5334;48.928;12.704;2022-10-04T21:00:26;89.73;;;85.87;;
10571;SDS011;5334;48.928;12.704;2022-10-04T21:03:08;1999.90;;;999.90;;
10571;SDS011;5334;48.928;12.704;2022-10-04T21:05:41;1999.90;;;999.90;;
10571;SDS011;5334;48.928;12.704;2022-10-04T21:08:26;1999.90;;;999.90;;
10571;SDS011;5334;48.928;12.704;2022-10-04T21:16:31;1999.90;;;999.90;;
10571;SDS011;5334;48.928;12.704;2022-10-04T21:24:33;1999.90;;;999.90;;
10571;SDS011;5334;48.928;12.704;2022-10-04T21:26:59;1999.90;;;999.90;;
10571;SDS011;5334;48.928;12.704;2022-10-04T21:29:26;1999.90;;;999.90;;
10571;SDS011;5334;48.928;12.704;2022-10-04T21:31:54;1999.90;;;999.90;;
10571;SDS011;5334;48.928;12.704;2022-10-04T21:34:20;1999.90;;;999.90;;
10571;SDS011;5334;48.928;12.704;2022-10-04T21:36:46;1999.90;;;999.90;;
10571;SDS011;5334;48.928;12.704;2022-10-04T21:39:12;1999.90;;;999.90;;
10571;SDS011;5334;48.928;12.704;2022-10-04T21:41:38;1999.90;;;999.90;;
10571;SDS011;5334;48.928;12.704;2022-10-04T21:44:03;1999.90;;;999.90;;
10571;SDS011;5334;48.928;12.704;2022-10-04T21:46:29;1999.90;;;999.90;;
10571;SDS011;5334;48.928;12.704;2022-10-04T21:48:55;1999.90;;;999.90;;
10571;SDS011;5334;48.928;12.704;2022-10-04T21:51:20;1999.90;;;999.90;;
10571;SDS011;5334;48.928;12.704;2022-10-04T21:53:46;1999.90;;;999.90;;
10571;SDS011;5334;48.928;12.704;2022-10-04T21:56:12;1999.90;;;999.90;;
10571;SDS011;5334;48.928;12.704;2022-10-04T21:58:37;1999.90;;;999.90;;
10571;SDS011;5334;48.928;12.704;2022-10-04T22:01:03;1999.90;;;999.90;;
10571;SDS011;5334;48.928;12.704;2022-10-04T22:03:29;1999.90;;;999.90;;
10571;SDS011;5334;48.928;12.704;2022-10-04T22:05:54;1999.90;;;999.90;;
10571;SDS011;5334;48.928;12.704;2022-10-04T22:08:20;1999.90;;;999.90;;
10571;SDS011;5334;48.928;12.704;2022-10-04T22:10:46;1999.90;;;999.90;;
10571;SDS011;5334;48.928;12.704;2022-10-04T22:13:12;1999.90;;;999.90;;
10571;SDS011;5334;48.928;12.704;2022-10-04T22:15:37;1999.90;;;999.90;;
10571;SDS011;5334;48.928;12.704;2022-10-04T22:18:03;1999.90;;;999.90;;
10571;SDS011;5334;48.928;12.704;2022-10-04T22:20:29;1999.90;;;999.90;;
10571;SDS011;5334;48.928;12.704;2022-10-04T22:22:55;1999.90;;;999.90;;
10571;SDS011;5334;48.928;12.704;2022-10-04T22:25:22;1999.90;;;999.90;;
10571;SDS011;5334;48.928;12.704;2022-10-04T22:27:49;1999.90;;;999.90;;
10571;SDS011;5334;48.928;12.704;2022-10-04T22:30:26;1999.90;;;999.90;;
10571;SDS011;5334;48.928;12.704;2022-10-04T22:32:55;1999.90;;;999.90;;
10571;SDS011;5334;48.928;12.704;2022-10-04T22:35:23;1999.90;;;999.90;;
10571;SDS011;5334;48.928;12.704;2022-10-04T22:37:49;1999.90;;;999.90;;
10571;SDS011;5334;48.928;12.704;2022-10-04T22:42:48;1999.90;;;999.90;;
10571;SDS011;5334;48.928;12.704;2022-10-04T22:45:23;1999.90;;;999.90;;
10571;SDS011;5334;48.928;12.704;2022-10-04T22:47:49;1999.90;;;999.90;;
10571;SDS011;5334;48.928;12.704;2022-10-04T22:50:34;1999.90;;;999.90;;
10571;SDS011;5334;48.928;12.704;2022-10-04T22:53:15;1999.90;;;999.90;;
10571;SDS011;5334;48.928;12.704;2022-10-04T22:55:43;1999.90;;;999.90;;
10571;SDS011;5334;48.928;12.704;2022-10-04T22:58:11;1999.90;;;999.90;;
10571;SDS011;5334;48.928;12.704;2022-10-04T23:00:38;1999.90;;;999.90;;
10571;SDS011;5334;48.928;12.704;2022-10-04T23:03:49;1999.90;;;999.90;;
10571;SDS011;5334;48.928;12.704;2022-10-04T23:05:58;1999.90;;;999.90;;
10571;SDS011;5334;48.928;12.704;2022-10-04T23:08:25;1999.90;;;999.90;;
10571;SDS011;5334;48.928;12.704;2022-10-04T23:10:52;1999.90;;;999.90;;
10571;SDS011;5334;48.928;12.704;2022-10-04T23:13:20;1999.90;;;999.90;;
10571;SDS011;5334;48.928;12.704;2022-10-04T23:15:46;1999.90;;;999.90;;
10571;SDS011;5334;48.928;12.704;2022-10-04T23:18:12;1999.90;;;999.90;;
10571;SDS011;5334;48.928;12.704;2022-10-04T23:20:39;1999.90;;;999.90;;
10571;SDS011;5334;48.928;12.704;2022-10-04T23:23:12;1999.90;;;999.90;;
10571;SDS011;5334;48.928;12.704;2022-10-04T23:25:45;1999.90;;;999.90;;
10571;SDS011;5334;48.928;12.704;2022-10-04T23:28:16;1999.90;;;999.90;;
10571;SDS011;5334;48.928;12.704;2022-10-04T23:33:39;1999.90;;;999.90;;
10571;SDS011;5334;48.928;12.704;2022-10-04T23:36:09;1999.90;;;999.90;;
10571;SDS011;5334;48.928;12.704;2022-10-04T23:38:37;1999.90;;;999.90;;
10571;SDS011;5334;48.928;12.704;2022-10-04T23:41:07;1999.90;;;999.90;;
10571;SDS011;5334;48.928;12.704;2022-10-04T23:43:35;1999.90;;;999.90;;
10571;SDS011;5334;48.928;12.704;2022-10-04T23:46:01;1999.90;;;999.90;;
10571;SDS011;5334;48.928;12.704;2022-10-04T23:48:43;1999.90;;;999.90;;
10571;SDS011;5334;48.928;12.704;2022-10-04T23:51:11;1999.90;;;999.90;;
10571;SDS011;5334;48.928;12.704;2022-10-04T23:53:38;1999.90;;;999.90;;
10571;SDS011;5334;48.928;12.704;2022-10-04T23:56:09;1999.90;;;999.90;;
10571;SDS011;5334;48.928;12.704;2022-10-04T23:58:47;1999.90;;;999.90;;
